sensor_id;sensor_type;location;lat;lon;timestamp;temperature;humidity
4828;DHT22;2428;48.732;9.148;2023-03-12T00:00:28;0.40;99.90
4828;DHT22;2428;48.732;9.148;2023-03-12T00:02:54;0.40;99.90
4828;DHT22;2428;48.732;9.148;2023-03-12T00:05:20;0.40;99.90
4828;DHT22;2428;48.732;9.148;2023-03-12T00:07:47;0.40;99.90
4828;DHT22;2428;48.732;9.148;2023-03-12T00:10:13;0.40;99.90
4828;DHT22;2428;48.732;9.148;2023-03-12T00:12:38;0.40;99.90
4828;DHT22;2428;48.732;9.148;2023-03-12T00:15:04;0.40;99.90
4828;DHT22;2428;48.732;9.148;2023-03-12T00:17:30;0.30;99.90
4828;DHT22;2428;48.732;9.148;2023-03-12T00:19:56;0.30;99.90
4828;DHT22;2428;48.732;9.148;2023-03-12T00:22:21;0.40;99.90
4828;DHT22;2428;48.732;9.148;2023-03-12T00:24:54;0.40;99.90
4828;DHT22;2428;48.732;9.148;2023-03-12T00:27:21;0.40;99.90
4828;DHT22;2428;48.732;9.148;2023-03-12T00:29:47;0.40;99.90
4828;DHT22;2428;48.732;9.148;2023-03-12T00:32:13;0.40;99.90
4828;DHT22;2428;48.732;9.148;2023-03-12T00:34:39;0.40;99.90
4828;DHT22;2428;48.732;9.148;2023-03-12T00:37:05;0.50;99.90
4828;DHT22;2428;48.732;9.148;2023-03-12T00:39:32;0.50;99.90
4828;DHT22;2428;48.732;9.148;2023-03-12T00:41:58;0.50;99.90
4828;DHT22;2428;48.732;9.148;2023-03-12T00:44:23;0.50;99.90
4828;DHT22;2428;48.732;9.148;2023-03-12T00:46:49;0.40;99.90
4828;DHT22;2428;48.732;9.148;2023-03-12T00:49:14;0.40;99.90
4828;DHT22;2428;48.732;9.148;2023-03-12T00:51:40;0.40;99.90
4828;DHT22;2428;48.732;9.148;2023-03-12T00:54:05;0.40;99.90
4828;DHT22;2428;48.732;9.148;2023-03-12T00:56:31;0.40;99.90
4828;DHT22;2428;48.732;9.148;2023-03-12T00:58:57;0.40;99.90
4828;DHT22;2428;48.732;9.148;2023-03-12T01:01:23;0.40;99.90
4828;DHT22;2428;48.732;9.148;2023-03-12T01:03:49;0.40;99.90
4828;DHT22;2428;48.732;9.148;2023-03-12T01:06:19;0.40;99.90
4828;DHT22;2428;48.732;9.148;2023-03-12T01:08:45;0.50;99.90
4828;DHT22;2428;48.732;9.148;2023-03-12T01:11:18;0.50;99.90
4828;DHT22;2428;48.732;9.148;2023-03-12T01:13:45;0.50;99.90
4828;DHT22;2428;48.732;9.148;2023-03-12T01:16:11;0.50;99.90
4828;DHT22;2428;48.732;9.148;2023-03-12T01:18:37;0.50;99.90
4828;DHT22;2428;48.732;9.148;2023-03-12T01:21:03;0.50;99.90
4828;DHT22;2428;48.732;9.148;2023-03-12T01:23:29;0.60;99.90
4828;DHT22;2428;48.732;9.148;2023-03-12T01:25:54;0.50;99.90
4828;DHT22;2428;48.732;9.148;2023-03-12T01:28:21;0.60;99.90
4828;DHT22;2428;48.732;9.148;2023-03-12T01:30:47;0.60;99.90
4828;DHT22;2428;48.732;9.148;2023-03-12T01:33:13;0.60;99.90
4828;DHT22;2428;48.732;9.148;2023-03-12T01:35:40;0.60;99.90
4828;DHT22;2428;48.732;9.148;2023-03-12T01:38:07;0.60;99.90
4828;DHT22;2428;48.732;9.148;2023-03-12T01:40:34;0.70;99.90
4828;DHT22;2428;48.732;9.148;2023-03-12T01:43:21;0.70;99.90
4828;DHT22;2428;48.732;9.148;2023-03-12T01:46:05;0.70;99.90
4828;DHT22;2428;48.732;9.148;2023-03-12T01:48:56;0.80;99.90
4828;DHT22;2428;48.732;9.148;2023-03-12T01:51:27;0.80;99.90
4828;DHT22;2428;48.732;9.148;2023-03-12T01:53:56;0.80;99.90
4828;DHT22;2428;48.732;9.148;2023-03-12T01:56:27;0.80;99.90
4828;DHT22;2428;48.732;9.148;2023-03-12T01:58:56;0.80;99.90
4828;DHT22;2428;48.732;9.148;2023-03-12T02:01:24;0.80;99.90
4828;DHT22;2428;48.732;9.148;2023-03-12T02:03:52;0.80;99.90
4828;DHT22;2428;48.732;9.148;2023-03-12T02:06:24;0.80;99.90
4828;DHT22;2428;48.732;9.148;2023-03-12T02:08:51;0.80;99.90
4828;DHT22;2428;48.732;9.148;2023-03-12T02:11:17;0.80;99.90
4828;DHT22;2428;48.732;9.148;2023-03-12T02:13:43;0.80;99.90
4828;DHT22;2428;48.732;9.148;2023-03-12T02:16:08;0.90;99.90
4828;DHT22;2428;48.732;9.148;2023-03-12T02:18:34;0.80;99.90
4828;DHT22;2428;48.732;9.148;2023-03-12T02:21:23;0.80;99.90
4828;DHT22;2428;48.732;9.148;2023-03-12T02:24:12;0.80;99.90
4828;DHT22;2428;48.732;9.148;2023-03-12T02:26:40;0.90;99.90
4828;DHT22;2428;48.732;9.148;2023-03-12T02:29:08;0.80;99.90
4828;DHT22;2428;48.732;9.148;2023-03-12T02:31:39;0.80;99.90
4828;DHT22;2428;48.732;9.148;2023-03-12T02:34:07;0.90;99.90
4828;DHT22;2428;48.732;9.148;2023-03-12T02:36:33;0.90;99.90
4828;DHT22;2428;48.732;9.148;2023-03-12T02:38:59;0.90;99.90
4828;DHT22;2428;48.732;9.148;2023-03-12T02:41:40;0.90;99.90
4828;DHT22;2428;48.732;9.148;2023-03-12T02:46:57;0.80;99.90
4828;DHT22;2428;48.732;9.148;2023-03-12T02:49:26;0.80;99.90
4828;DHT22;2428;48.732;9.148;2023-03-12T02:51:52;0.80;99.90
4828;DHT22;2428;48.732;9.148;2023-03-12T02:54:20;0.80;99.90
4828;DHT22;2428;48.732;9.148;2023-03-12T02:56:47;0.80;99.90
4828;DHT22;2428;48.732;9.148;2023-03-12T02:59:14;0.70;99.90
4828;DHT22;2428;48.732;9.148;2023-03-12T03:01:40;0.70;99.90
4828;DHT22;2428;48.732;9.148;2023-03-12T03:04:07;0.70;99.90
4828;DHT22;2428;48.732;9.148;2023-03-12T03:06:35;0.70;99.90
4828;DHT22;2428;48.732;9.148;2023-03-12T03:09:02;0.70;99.90
4828;DHT22;2428;48.732;9.148;2023-03-12T03:11:28;0.60;99.90
4828;DHT22;2428;48.732;9.148;2023-03-12T03:13:54;0.60;99.90
4828;DHT22;2428;48.732;9.148;2023-03-12T03:16:21;0.60;99.90
4828;DHT22;2428;48.732;9.148;2023-03-12T03:18:47;0.70;99.90
4828;DHT22;2428;48.732;9.148;2023-03-12T03:21:14;0.60;99.90
4828;DHT22;2428;48.732;9.148;2023-03-12T03:23:46;0.60;99.90
4828;DHT22;2428;48.732;9.148;2023-03-12T03:26:12;0.60;99.90
4828;DHT22;2428;48.732;9.148;2023-03-12T03:28:38;0.60;99.90
4828;DHT22;2428;48.732;9.148;2023-03-12T03:31:04;0.60;99.90
4828;DHT22;2428;48.732;9.148;2023-03-12T03:33:32;0.70;99.90
4828;DHT22;2428;48.732;9.148;2023-03-12T03:35:59;0.70;99.90
4828;DHT22;2428;48.732;9.148;2023-03-12T03:38:26;0.70;99.90
4828;DHT22;2428;48.732;9.148;2023-03-12T03:40:53;0.60;99.90
4828;DHT22;2428;48.732;9.148;2023-03-12T03:43:18;0.60;99.90
4828;DHT22;2428;48.732;9.148;2023-03-12T03:45:44;0.60;99.90
4828;DHT22;2428;48.732;9.148;2023-03-12T03:48:11;0.60;99.90
4828;DHT22;2428;48.732;9.148;2023-03-12T03:50:40;0.60;99.90
4828;DHT22;2428;48.732;9.148;2023-03-12T03:53:07;0.60;99.90
4828;DHT22;2428;48.732;9.148;2023-03-12T03:55:40;0.60;99.90
4828;DHT22;2428;48.732;9.148;2023-03-12T03:58:06;0.70;99.90
4828;DHT22;2428;48.732;9.148;2023-03-12T04:00:32;0.70;99.90
4828;DHT22;2428;48.732;9.148;2023-03-12T04:02:58;0.70;99.90
4828;DHT22;2428;48.732;9.148;2023-03-12T04:05:24;0.70;99.90
4828;DHT22;2428;48.732;9.148;2023-03-12T04:07:53;0.70;99.90
4828;DHT22;2428;48.732;9.148;2023-03-12T04:10:20;0.80;99.90
4828;DHT22;2428;48.732;9.148;2023-03-12T04:12:46;0.80;99.90
4828;DHT22;2428;48.732;9.148;2023-03-12T04:15:12;0.80;99.90
4828;DHT22;2428;48.732;9.148;2023-03-12T04:17:38;0.80;99.90
4828;DHT22;2428;48.732;9.148;2023-03-12T04:20:03;0.80;99.90
4828;DHT22;2428;48.732;9.148;2023-03-12T04:22:32;0.80;99.90
4828;DHT22;2428;48.732;9.148;2023-03-12T04:24:57;0.80;99.90
4828;DHT22;2428;48.732;9.148;2023-03-12T04:27:23;0.80;99.90
4828;DHT22;2428;48.732;9.148;2023-03-12T04:29:49;0.80;99.90
4828;DHT22;2428;48.732;9.148;2023-03-12T04:32:14;0.90;99.90
4828;DHT22;2428;48.732;9.148;2023-03-12T04:34:40;0.90;99.90
4828;DHT22;2428;48.732;9.148;2023-03-12T04:37:07;1.00;99.90
4828;DHT22;2428;48.732;9.148;2023-03-12T04:39:35;1.00;99.90
4828;DHT22;2428;48.732;9.148;2023-03-12T04:42:01;1.10;99.90
4828;DHT22;2428;48.732;9.148;2023-03-12T04:44:26;1.10;99.90
4828;DHT22;2428;48.732;9.148;2023-03-12T04:46:52;1.10;99.90
4828;DHT22;2428;48.732;9.148;2023-03-12T04:49:17;1.20;99.90
4828;DHT22;2428;48.732;9.148;2023-03-12T04:51:43;1.30;99.90
4828;DHT22;2428;48.732;9.148;2023-03-12T04:54:08;1.30;99.90
4828;DHT22;2428;48.732;9.148;2023-03-12T04:56:34;1.30;99.90
4828;DHT22;2428;48.732;9.148;2023-03-12T04:59:00;1.30;99.90
4828;DHT22;2428;48.732;9.148;2023-03-12T05:01:31;1.40;99.90
4828;DHT22;2428;48.732;9.148;2023-03-12T05:03:57;1.40;99.90
4828;DHT22;2428;48.732;9.148;2023-03-12T05:06:23;1.50;99.90
4828;DHT22;2428;48.732;9.148;2023-03-12T05:08:49;1.50;99.90
4828;DHT22;2428;48.732;9.148;2023-03-12T05:11:15;1.50;99.90
4828;DHT22;2428;48.732;9.148;2023-03-12T05:13:42;1.50;99.90
4828;DHT22;2428;48.732;9.148;2023-03-12T05:16:08;1.60;99.90
4828;DHT22;2428;48.732;9.148;2023-03-12T05:18:34;1.60;99.90
4828;DHT22;2428;48.732;9.148;2023-03-12T05:21:09;1.60;99.90
4828;DHT22;2428;48.732;9.148;2023-03-12T05:23:35;1.60;99.90
4828;DHT22;2428;48.732;9.148;2023-03-12T05:26:23;1.60;99.90
4828;DHT22;2428;48.732;9.148;2023-03-12T05:28:49;1.60;99.90
4828;DHT22;2428;48.732;9.148;2023-03-12T05:31:16;1.60;99.90
4828;DHT22;2428;48.732;9.148;2023-03-12T05:33:42;1.60;99.90
4828;DHT22;2428;48.732;9.148;2023-03-12T05:36:08;1.60;99.90
4828;DHT22;2428;48.732;9.148;2023-03-12T05:38:34;1.60;99.90
4828;DHT22;2428;48.732;9.148;2023-03-12T05:40:59;1.60;99.90
4828;DHT22;2428;48.732;9.148;2023-03-12T05:43:26;1.60;99.90
4828;DHT22;2428;48.732;9.148;2023-03-12T05:45:52;1.60;99.90
4828;DHT22;2428;48.732;9.148;2023-03-12T05:48:18;1.50;99.90
4828;DHT22;2428;48.732;9.148;2023-03-12T05:50:44;1.50;99.90
4828;DHT22;2428;48.732;9.148;2023-03-12T05:53:10;1.50;99.90
4828;DHT22;2428;48.732;9.148;2023-03-12T05:55:37;1.40;99.90
4828;DHT22;2428;48.732;9.148;2023-03-12T05:58:03;1.40;99.90
4828;DHT22;2428;48.732;9.148;2023-03-12T06:00:30;1.40;99.90
4828;DHT22;2428;48.732;9.148;2023-03-12T06:02:56;1.40;99.90
4828;DHT22;2428;48.732;9.148;2023-03-12T06:05:21;1.50;99.90
4828;DHT22;2428;48.732;9.148;2023-03-12T06:07:47;1.50;99.90
4828;DHT22;2428;48.732;9.148;2023-03-12T06:10:13;1.50;99.90
4828;DHT22;2428;48.732;9.148;2023-03-12T06:12:39;1.50;99.90
4828;DHT22;2428;48.732;9.148;2023-03-12T06:15:04;1.50;99.90
4828;DHT22;2428;48.732;9.148;2023-03-12T06:17:30;1.60;99.90
4828;DHT22;2428;48.732;9.148;2023-03-12T06:19:57;1.60;99.90
4828;DHT22;2428;48.732;9.148;2023-03-12T06:22:23;1.50;99.90
4828;DHT22;2428;48.732;9.148;2023-03-12T06:24:49;1.50;99.90
4828;DHT22;2428;48.732;9.148;2023-03-12T06:27:15;1.50;99.90
4828;DHT22;2428;48.732;9.148;2023-03-12T06:29:41;1.60;99.90
4828;DHT22;2428;48.732;9.148;2023-03-12T06:32:07;1.60;99.90
4828;DHT22;2428;48.732;9.148;2023-03-12T06:34:32;1.60;99.90
4828;DHT22;2428;48.732;9.148;2023-03-12T06:36:58;1.60;99.90
4828;DHT22;2428;48.732;9.148;2023-03-12T06:39:24;1.60;99.90
4828;DHT22;2428;48.732;9.148;2023-03-12T06:41:49;1.50;99.90
4828;DHT22;2428;48.732;9.148;2023-03-12T06:44:15;1.50;99.90
4828;DHT22;2428;48.732;9.148;2023-03-12T06:46:41;1.50;99.90
4828;DHT22;2428;48.732;9.148;2023-03-12T06:49:09;1.50;99.90
4828;DHT22;2428;48.732;9.148;2023-03-12T06:51:34;1.60;99.90
4828;DHT22;2428;48.732;9.148;2023-03-12T06:54:00;1.60;99.90
4828;DHT22;2428;48.732;9.148;2023-03-12T06:56:28;1.50;99.90
4828;DHT22;2428;48.732;9.148;2023-03-12T06:58:53;1.40;99.90
4828;DHT22;2428;48.732;9.148;2023-03-12T07:01:19;1.40;99.90
4828;DHT22;2428;48.732;9.148;2023-03-12T07:03:45;1.40;99.90
4828;DHT22;2428;48.732;9.148;2023-03-12T07:06:15;1.30;99.90
4828;DHT22;2428;48.732;9.148;2023-03-12T07:08:41;1.30;99.90
4828;DHT22;2428;48.732;9.148;2023-03-12T07:11:07;1.20;99.90
4828;DHT22;2428;48.732;9.148;2023-03-12T07:13:33;1.10;99.90
4828;DHT22;2428;48.732;9.148;2023-03-12T07:15:58;1.10;99.90
4828;DHT22;2428;48.732;9.148;2023-03-12T07:18:24;1.10;99.90
4828;DHT22;2428;48.732;9.148;2023-03-12T07:20:51;1.10;99.90
4828;DHT22;2428;48.732;9.148;2023-03-12T07:23:16;1.10;99.90
4828;DHT22;2428;48.732;9.148;2023-03-12T07:25:43;1.10;99.90
4828;DHT22;2428;48.732;9.148;2023-03-12T07:28:09;1.10;99.90
4828;DHT22;2428;48.732;9.148;2023-03-12T07:30:36;1.10;99.90
4828;DHT22;2428;48.732;9.148;2023-03-12T07:33:07;1.20;99.90
4828;DHT22;2428;48.732;9.148;2023-03-12T07:35:34;1.20;99.90
4828;DHT22;2428;48.732;9.148;2023-03-12T07:38:02;1.20;99.90
4828;DHT22;2428;48.732;9.148;2023-03-12T07:40:28;1.20;99.90
4828;DHT22;2428;48.732;9.148;2023-03-12T07:42:54;1.20;99.90
4828;DHT22;2428;48.732;9.148;2023-03-12T07:45:19;1.10;99.90
4828;DHT22;2428;48.732;9.148;2023-03-12T07:47:45;1.20;99.90
4828;DHT22;2428;48.732;9.148;2023-03-12T07:50:11;1.30;99.90
4828;DHT22;2428;48.732;9.148;2023-03-12T07:52:37;1.40;99.90
4828;DHT22;2428;48.732;9.148;2023-03-12T07:55:03;1.50;99.90
4828;DHT22;2428;48.732;9.148;2023-03-12T07:57:28;1.60;99.90
4828;DHT22;2428;48.732;9.148;2023-03-12T07:59:54;1.70;99.90
4828;DHT22;2428;48.732;9.148;2023-03-12T08:02:20;1.80;99.90
4828;DHT22;2428;48.732;9.148;2023-03-12T08:04:45;1.90;99.90
4828;DHT22;2428;48.732;9.148;2023-03-12T08:07:11;2.10;99.90
4828;DHT22;2428;48.732;9.148;2023-03-12T08:09:37;2.20;99.90
4828;DHT22;2428;48.732;9.148;2023-03-12T08:12:07;2.40;99.90
4828;DHT22;2428;48.732;9.148;2023-03-12T08:14:33;2.50;99.90
4828;DHT22;2428;48.732;9.148;2023-03-12T08:17:00;2.60;99.90
4828;DHT22;2428;48.732;9.148;2023-03-12T08:19:26;2.60;99.90
4828;DHT22;2428;48.732;9.148;2023-03-12T08:21:52;2.60;99.90
4828;DHT22;2428;48.732;9.148;2023-03-12T08:24:19;2.50;99.90
4828;DHT22;2428;48.732;9.148;2023-03-12T08:26:45;2.50;99.90
4828;DHT22;2428;48.732;9.148;2023-03-12T08:29:11;2.50;99.90
4828;DHT22;2428;48.732;9.148;2023-03-12T08:31:37;2.60;99.90
4828;DHT22;2428;48.732;9.148;2023-03-12T08:34:02;2.50;99.90
4828;DHT22;2428;48.732;9.148;2023-03-12T08:36:28;2.50;99.90
4828;DHT22;2428;48.732;9.148;2023-03-12T08:38:53;2.50;99.90
4828;DHT22;2428;48.732;9.148;2023-03-12T08:41:19;2.60;99.90
4828;DHT22;2428;48.732;9.148;2023-03-12T08:43:45;2.70;99.90
4828;DHT22;2428;48.732;9.148;2023-03-12T08:46:11;2.70;99.90
4828;DHT22;2428;48.732;9.148;2023-03-12T08:48:37;2.80;99.90
4828;DHT22;2428;48.732;9.148;2023-03-12T08:51:03;2.90;99.90
4828;DHT22;2428;48.732;9.148;2023-03-12T08:53:31;3.00;99.90
4828;DHT22;2428;48.732;9.148;2023-03-12T08:55:57;3.20;99.90
4828;DHT22;2428;48.732;9.148;2023-03-12T08:58:23;3.30;99.90
4828;DHT22;2428;48.732;9.148;2023-03-12T09:00:50;3.40;99.90
4828;DHT22;2428;48.732;9.148;2023-03-12T09:03:16;3.50;99.90
4828;DHT22;2428;48.732;9.148;2023-03-12T09:05:43;3.70;99.90
4828;DHT22;2428;48.732;9.148;2023-03-12T09:08:09;3.70;99.90
4828;DHT22;2428;48.732;9.148;2023-03-12T09:10:36;3.90;99.90
4828;DHT22;2428;48.732;9.148;2023-03-12T09:13:02;4.00;99.90
4828;DHT22;2428;48.732;9.148;2023-03-12T09:15:28;4.10;99.90
4828;DHT22;2428;48.732;9.148;2023-03-12T09:17:53;4.20;99.90
4828;DHT22;2428;48.732;9.148;2023-03-12T09:20:20;4.30;99.90
4828;DHT22;2428;48.732;9.148;2023-03-12T09:22:47;4.30;99.90
4828;DHT22;2428;48.732;9.148;2023-03-12T09:25:13;4.40;99.90
4828;DHT22;2428;48.732;9.148;2023-03-12T09:27:41;4.50;99.90
4828;DHT22;2428;48.732;9.148;2023-03-12T09:30:09;4.70;99.90
4828;DHT22;2428;48.732;9.148;2023-03-12T09:32:35;4.90;99.90
4828;DHT22;2428;48.732;9.148;2023-03-12T09:35:00;5.10;99.90
4828;DHT22;2428;48.732;9.148;2023-03-12T09:37:26;5.10;99.90
4828;DHT22;2428;48.732;9.148;2023-03-12T09:39:52;5.20;99.90
4828;DHT22;2428;48.732;9.148;2023-03-12T09:42:24;5.20;99.90
4828;DHT22;2428;48.732;9.148;2023-03-12T09:44:52;5.30;99.90
4828;DHT22;2428;48.732;9.148;2023-03-12T09:47:29;5.40;99.90
4828;DHT22;2428;48.732;9.148;2023-03-12T09:50:05;5.50;99.90
4828;DHT22;2428;48.732;9.148;2023-03-12T09:52:40;5.60;99.90
4828;DHT22;2428;48.732;9.148;2023-03-12T09:55:20;5.70;99.90
4828;DHT22;2428;48.732;9.148;2023-03-12T09:57:47;5.90;99.90
4828;DHT22;2428;48.732;9.148;2023-03-12T10:00:19;5.90;99.90
4828;DHT22;2428;48.732;9.148;2023-03-12T10:03:08;5.90;99.90
4828;DHT22;2428;48.732;9.148;2023-03-12T10:05:53;6.00;99.90
4828;DHT22;2428;48.732;9.148;2023-03-12T10:11:24;6.20;99.90
4828;DHT22;2428;48.732;9.148;2023-03-12T10:25:35;7.00;99.90
4828;DHT22;2428;48.732;9.148;2023-03-12T10:28:16;7.10;99.90
4828;DHT22;2428;48.732;9.148;2023-03-12T10:30:47;7.20;99.90
4828;DHT22;2428;48.732;9.148;2023-03-12T10:33:17;7.40;99.90
4828;DHT22;2428;48.732;9.148;2023-03-12T10:35:43;7.60;99.90
4828;DHT22;2428;48.732;9.148;2023-03-12T10:38:28;7.80;99.90
4828;DHT22;2428;48.732;9.148;2023-03-12T10:40:54;8.10;99.90
4828;DHT22;2428;48.732;9.148;2023-03-12T10:43:19;8.00;99.90
4828;DHT22;2428;48.732;9.148;2023-03-12T10:46:29;7.90;99.90
4828;DHT22;2428;48.732;9.148;2023-03-12T10:54:36;7.60;99.90
4828;DHT22;2428;48.732;9.148;2023-03-12T10:57:02;7.60;99.90
4828;DHT22;2428;48.732;9.148;2023-03-12T10:59:31;7.60;99.90
4828;DHT22;2428;48.732;9.148;2023-03-12T11:01:58;7.70;99.90
4828;DHT22;2428;48.732;9.148;2023-03-12T11:04:29;8.00;99.90
4828;DHT22;2428;48.732;9.148;2023-03-12T11:09:29;8.50;99.90
4828;DHT22;2428;48.732;9.148;2023-03-12T11:11:55;8.60;99.90
4828;DHT22;2428;48.732;9.148;2023-03-12T11:16:47;9.00;99.90
4828;DHT22;2428;48.732;9.148;2023-03-12T11:19:24;9.20;99.90
4828;DHT22;2428;48.732;9.148;2023-03-12T11:22:02;9.30;99.90
4828;DHT22;2428;48.732;9.148;2023-03-12T11:24:29;9.10;99.90
4828;DHT22;2428;48.732;9.148;2023-03-12T11:27:15;9.20;99.90
4828;DHT22;2428;48.732;9.148;2023-03-12T11:29:47;9.10;99.90
4828;DHT22;2428;48.732;9.148;2023-03-12T11:32:30;9.10;99.90
4828;DHT22;2428;48.732;9.148;2023-03-12T11:34:57;9.10;99.90
4828;DHT22;2428;48.732;9.148;2023-03-12T11:40:28;9.30;99.90
4828;DHT22;2428;48.732;9.148;2023-03-12T11:43:23;9.20;99.90
4828;DHT22;2428;48.732;9.148;2023-03-12T11:46:20;9.30;99.90
4828;DHT22;2428;48.732;9.148;2023-03-12T11:51:26;9.60;99.90
4828;DHT22;2428;48.732;9.148;2023-03-12T11:56:33;9.30;99.90
4828;DHT22;2428;48.732;9.148;2023-03-12T12:02:15;9.30;99.90
4828;DHT22;2428;48.732;9.148;2023-03-12T12:20:46;9.80;99.90
4828;DHT22;2428;48.732;9.148;2023-03-12T12:26:04;10.00;99.90
4828;DHT22;2428;48.732;9.148;2023-03-12T12:36:37;10.60;99.90
4828;DHT22;2428;48.732;9.148;2023-03-12T12:41:46;10.80;99.90
4828;DHT22;2428;48.732;9.148;2023-03-12T12:44:42;10.70;99.90
4828;DHT22;2428;48.732;9.148;2023-03-12T12:47:11;10.70;99.90
4828;DHT22;2428;48.732;9.148;2023-03-12T12:49:47;10.90;99.90
4828;DHT22;2428;48.732;9.148;2023-03-12T12:52:20;10.90;99.90
4828;DHT22;2428;48.732;9.148;2023-03-12T12:55:10;10.90;99.90
4828;DHT22;2428;48.732;9.148;2023-03-12T12:57:41;10.80;99.90
4828;DHT22;2428;48.732;9.148;2023-03-12T13:02:38;10.50;99.90
4828;DHT22;2428;48.732;9.148;2023-03-12T13:05:18;10.40;99.90
4828;DHT22;2428;48.732;9.148;2023-03-12T13:07:44;10.40;99.90
4828;DHT22;2428;48.732;9.148;2023-03-12T13:13:03;10.30;99.90
4828;DHT22;2428;48.732;9.148;2023-03-12T13:20:23;10.10;99.90
4828;DHT22;2428;48.732;9.148;2023-03-12T13:33:49;10.00;99.90
4828;DHT22;2428;48.732;9.148;2023-03-12T13:41:39;10.00;99.90
4828;DHT22;2428;48.732;9.148;2023-03-12T13:44:36;10.00;99.90
4828;DHT22;2428;48.732;9.148;2023-03-12T13:47:28;10.00;99.90
4828;DHT22;2428;48.732;9.148;2023-03-12T13:50:05;9.90;99.90
4828;DHT22;2428;48.732;9.148;2023-03-12T13:52:45;9.90;99.90
4828;DHT22;2428;48.732;9.148;2023-03-12T13:55:26;10.00;99.90
4828;DHT22;2428;48.732;9.148;2023-03-12T14:01:04;10.20;99.90
4828;DHT22;2428;48.732;9.148;2023-03-12T14:03:39;10.30;99.90
4828;DHT22;2428;48.732;9.148;2023-03-12T14:06:12;10.40;99.90
4828;DHT22;2428;48.732;9.148;2023-03-12T14:16:47;10.90;99.90
4828;DHT22;2428;48.732;9.148;2023-03-12T14:19:22;11.00;99.90
4828;DHT22;2428;48.732;9.148;2023-03-12T14:21:49;11.00;99.90
4828;DHT22;2428;48.732;9.148;2023-03-12T14:26:51;10.80;99.90
4828;DHT22;2428;48.732;9.148;2023-03-12T14:31:46;10.70;99.90
4828;DHT22;2428;48.732;9.148;2023-03-12T14:34:17;10.60;99.90
4828;DHT22;2428;48.732;9.148;2023-03-12T14:41:58;10.60;99.90
4828;DHT22;2428;48.732;9.148;2023-03-12T14:44:27;10.60;99.90
4828;DHT22;2428;48.732;9.148;2023-03-12T14:47:19;10.50;99.90
4828;DHT22;2428;48.732;9.148;2023-03-12T14:49:46;10.50;99.90
4828;DHT22;2428;48.732;9.148;2023-03-12T14:52:22;10.60;99.90
4828;DHT22;2428;48.732;9.148;2023-03-12T14:55:12;10.50;99.90
4828;DHT22;2428;48.732;9.148;2023-03-12T14:57:37;10.50;99.90
4828;DHT22;2428;48.732;9.148;2023-03-12T15:00:04;10.50;99.90
4828;DHT22;2428;48.732;9.148;2023-03-12T15:02:39;10.60;99.90
4828;DHT22;2428;48.732;9.148;2023-03-12T15:05:17;10.80;99.90
4828;DHT22;2428;48.732;9.148;2023-03-12T15:07:45;10.90;99.90
4828;DHT22;2428;48.732;9.148;2023-03-12T15:10:30;11.20;99.90
4828;DHT22;2428;48.732;9.148;2023-03-12T15:12:58;11.10;99.90
4828;DHT22;2428;48.732;9.148;2023-03-12T15:18:10;11.20;99.90
4828;DHT22;2428;48.732;9.148;2023-03-12T15:20:38;11.00;99.90
4828;DHT22;2428;48.732;9.148;2023-03-12T15:23:05;10.90;99.90
4828;DHT22;2428;48.732;9.148;2023-03-12T15:25:33;10.90;99.90
4828;DHT22;2428;48.732;9.148;2023-03-12T15:28:24;10.90;99.90
4828;DHT22;2428;48.732;9.148;2023-03-12T15:31:22;10.80;99.90
4828;DHT22;2428;48.732;9.148;2023-03-12T15:34:00;10.80;99.90
4828;DHT22;2428;48.732;9.148;2023-03-12T15:36:28;10.80;99.90
4828;DHT22;2428;48.732;9.148;2023-03-12T15:39:20;10.80;99.90
4828;DHT22;2428;48.732;9.148;2023-03-12T15:41:50;10.80;99.90
4828;DHT22;2428;48.732;9.148;2023-03-12T15:44:25;10.80;99.90
4828;DHT22;2428;48.732;9.148;2023-03-12T15:46:56;10.70;99.90
4828;DHT22;2428;48.732;9.148;2023-03-12T15:49:32;10.70;99.90
4828;DHT22;2428;48.732;9.148;2023-03-12T15:54:58;10.70;99.90
4828;DHT22;2428;48.732;9.148;2023-03-12T15:57:24;10.70;99.90
4828;DHT22;2428;48.732;9.148;2023-03-12T16:02:37;10.70;99.90
4828;DHT22;2428;48.732;9.148;2023-03-12T16:05:04;10.70;99.90
4828;DHT22;2428;48.732;9.148;2023-03-12T16:07:29;10.60;99.90
4828;DHT22;2428;48.732;9.148;2023-03-12T16:09:55;10.60;99.90
4828;DHT22;2428;48.732;9.148;2023-03-12T16:12:21;10.60;99.90
4828;DHT22;2428;48.732;9.148;2023-03-12T16:14:47;10.60;99.90
4828;DHT22;2428;48.732;9.148;2023-03-12T16:17:14;10.60;99.90
4828;DHT22;2428;48.732;9.148;2023-03-12T16:19:43;10.60;99.90
4828;DHT22;2428;48.732;9.148;2023-03-12T16:22:09;10.60;99.90
4828;DHT22;2428;48.732;9.148;2023-03-12T16:24:34;10.60;99.90
4828;DHT22;2428;48.732;9.148;2023-03-12T16:27:01;10.60;99.90
4828;DHT22;2428;48.732;9.148;2023-03-12T16:29:34;10.60;99.90
4828;DHT22;2428;48.732;9.148;2023-03-12T16:32:01;10.60;99.90
4828;DHT22;2428;48.732;9.148;2023-03-12T16:34:27;10.50;99.90
4828;DHT22;2428;48.732;9.148;2023-03-12T16:36:53;10.50;99.90
4828;DHT22;2428;48.732;9.148;2023-03-12T16:39:19;10.50;99.90
4828;DHT22;2428;48.732;9.148;2023-03-12T16:41:45;10.50;99.90
4828;DHT22;2428;48.732;9.148;2023-03-12T16:44:16;10.40;99.90
4828;DHT22;2428;48.732;9.148;2023-03-12T16:46:43;10.40;99.90
4828;DHT22;2428;48.732;9.148;2023-03-12T16:49:19;10.40;99.90
4828;DHT22;2428;48.732;9.148;2023-03-12T16:51:45;10.50;99.90
4828;DHT22;2428;48.732;9.148;2023-03-12T16:54:12;10.50;99.90
4828;DHT22;2428;48.732;9.148;2023-03-12T16:56:41;10.50;99.90
4828;DHT22;2428;48.732;9.148;2023-03-12T16:59:25;10.50;99.90
4828;DHT22;2428;48.732;9.148;2023-03-12T17:01:51;10.50;99.90
4828;DHT22;2428;48.732;9.148;2023-03-12T17:04:17;10.40;99.90
4828;DHT22;2428;48.732;9.148;2023-03-12T17:06:42;10.40;99.90
4828;DHT22;2428;48.732;9.148;2023-03-12T17:09:08;10.40;99.90
4828;DHT22;2428;48.732;9.148;2023-03-12T17:11:35;10.40;99.90
4828;DHT22;2428;48.732;9.148;2023-03-12T17:14:06;10.30;99.90
4828;DHT22;2428;48.732;9.148;2023-03-12T17:16:36;10.30;99.90
4828;DHT22;2428;48.732;9.148;2023-03-12T17:19:02;10.30;99.90
4828;DHT22;2428;48.732;9.148;2023-03-12T17:21:28;10.30;99.90
4828;DHT22;2428;48.732;9.148;2023-03-12T17:23:54;10.30;99.90
4828;DHT22;2428;48.732;9.148;2023-03-12T17:26:19;10.20;99.90
4828;DHT22;2428;48.732;9.148;2023-03-12T17:28:45;10.20;99.90
4828;DHT22;2428;48.732;9.148;2023-03-12T17:31:10;10.20;99.90
4828;DHT22;2428;48.732;9.148;2023-03-12T17:33:36;10.10;99.90
4828;DHT22;2428;48.732;9.148;2023-03-12T17:36:05;10.10;99.90
4828;DHT22;2428;48.732;9.148;2023-03-12T17:38:31;10.10;99.90
4828;DHT22;2428;48.732;9.148;2023-03-12T17:40:58;10.00;99.90
4828;DHT22;2428;48.732;9.148;2023-03-12T17:43:24;10.00;99.90
4828;DHT22;2428;48.732;9.148;2023-03-12T17:45:50;10.00;99.90
4828;DHT22;2428;48.732;9.148;2023-03-12T17:48:16;10.00;99.90
4828;DHT22;2428;48.732;9.148;2023-03-12T17:50:42;9.90;99.90
4828;DHT22;2428;48.732;9.148;2023-03-12T17:53:08;9.90;99.90
4828;DHT22;2428;48.732;9.148;2023-03-12T17:55:34;9.90;99.90
4828;DHT22;2428;48.732;9.148;2023-03-12T17:58:01;9.80;99.90
4828;DHT22;2428;48.732;9.148;2023-03-12T18:00:28;9.80;99.90
4828;DHT22;2428;48.732;9.148;2023-03-12T18:02:54;9.70;99.90
4828;DHT22;2428;48.732;9.148;2023-03-12T18:05:20;9.70;99.90
4828;DHT22;2428;48.732;9.148;2023-03-12T18:07:46;9.70;99.90
4828;DHT22;2428;48.732;9.148;2023-03-12T18:10:12;9.60;99.90
4828;DHT22;2428;48.732;9.148;2023-03-12T18:12:38;9.70;99.90
4828;DHT22;2428;48.732;9.148;2023-03-12T18:15:09;9.60;99.90
4828;DHT22;2428;48.732;9.148;2023-03-12T18:17:36;9.60;99.90
4828;DHT22;2428;48.732;9.148;2023-03-12T18:20:02;9.70;99.90
4828;DHT22;2428;48.732;9.148;2023-03-12T18:22:36;9.70;99.90
4828;DHT22;2428;48.732;9.148;2023-03-12T18:25:02;9.70;99.90
4828;DHT22;2428;48.732;9.148;2023-03-12T18:27:28;9.60;99.90
4828;DHT22;2428;48.732;9.148;2023-03-12T18:29:53;9.60;99.90